createdAt,value
2019-01-25T00:00:00.267Z,126.70
2019-01-25T00:01:00.307Z,140.60
2019-01-25T00:02:00.470Z,130.00
2019-01-25T00:03:02.229Z,137.20
2019-01-25T00:04:00.829Z,133.60
2019-01-25T00:05:00.971Z,129.30
2019-01-25T00:06:01.139Z,135.30
2019-01-25T00:07:01.324Z,136.50
2019-01-25T00:08:01.481Z,136.10
2019-01-25T00:09:01.647Z,131.90
2019-01-25T00:10:01.807Z,132.20
2019-01-25T00:11:02.004Z,133.40
2019-01-25T00:12:02.142Z,136.50
2019-01-25T00:13:02.315Z,143.60
2019-01-25T00:14:02.467Z,136.10
2019-01-25T00:15:02.635Z,134.70
2019-01-25T00:16:02.799Z,129.70
2019-01-25T00:17:02.985Z,140.30
2019-01-25T00:18:03.136Z,137.10
2019-01-25T00:19:03.304Z,130.90
2019-01-25T00:20:03.510Z,126.40
2019-01-25T00:21:03.648Z,136.90
2019-01-25T00:22:03.814Z,127.90
2019-01-25T00:23:03.971Z,129.20
2019-01-25T00:24:04.153Z,132.70
2019-01-25T00:25:04.361Z,130.50
2019-01-25T00:26:04.474Z,141.40
2019-01-25T00:27:04.641Z,140.00
2019-01-25T00:28:04.810Z,127.30
2019-01-25T00:29:04.978Z,135.70
2019-01-25T00:30:05.177Z,128.50
2019-01-25T00:31:05.332Z,135.10
2019-01-25T00:32:05.531Z,130.30
2019-01-25T00:33:05.645Z,136.70
2019-01-25T00:34:05.812Z,138.00
2019-01-25T00:35:05.980Z,127.90
2019-01-25T00:36:06.167Z,133.70
2019-01-25T00:37:06.315Z,133.50
2019-01-25T00:38:06.482Z,139.10
2019-01-25T00:39:06.649Z,127.50
2019-01-25T00:40:06.820Z,131.60
2019-01-25T00:41:06.986Z,129.10
2019-01-25T00:42:07.154Z,133.40
2019-01-25T00:43:07.334Z,136.40
2019-01-25T00:44:07.486Z,129.60
2019-01-25T00:45:07.653Z,131.30
2019-01-25T00:46:07.824Z,129.40
2019-01-25T00:47:07.992Z,134.40
2019-01-25T00:48:08.157Z,140.10
2019-01-25T00:49:08.326Z,131.50
2019-01-25T00:50:08.499Z,131.50
2019-01-25T00:51:08.664Z,132.30
2019-01-25T00:52:08.845Z,141.50
2019-01-25T00:53:08.993Z,135.10
2019-01-25T00:54:09.161Z,131.80
2019-01-25T00:55:09.340Z,133.10
2019-01-25T00:56:09.499Z,138.40
2019-01-25T00:57:09.671Z,127.50
2019-01-25T00:58:09.835Z,132.40
2019-01-25T00:59:10.000Z,132.60
2019-01-25T01:00:10.159Z,140.30
2019-01-25T01:01:10.330Z,136.30
2019-01-25T01:02:10.511Z,128.80
2019-01-25T01:03:10.691Z,131.50
2019-01-25T01:04:10.851Z,135.00
2019-01-25T01:05:11.012Z,131.90
2019-01-25T01:06:11.187Z,135.70
2019-01-25T01:07:11.351Z,140.00
2019-01-25T01:09:11.687Z,129.80
2019-01-25T01:10:14.129Z,140.10
2019-01-25T01:11:12.026Z,133.80
2019-01-25T01:12:12.191Z,134.60
2019-01-25T01:13:12.354Z,139.40
2019-01-25T01:14:12.538Z,139.80
2019-01-25T01:15:12.704Z,133.00
2019-01-25T01:16:12.873Z,139.50
2019-01-25T01:17:13.038Z,139.20
2019-01-25T01:18:13.209Z,133.10
2019-01-25T01:19:13.386Z,137.60
2019-01-25T01:20:13.555Z,135.20
2019-01-25T01:21:13.726Z,125.40
2019-01-25T01:22:13.888Z,136.20
2019-01-25T01:23:14.059Z,135.30
2019-01-25T01:24:14.224Z,138.60
2019-01-25T01:25:14.396Z,140.70
2019-01-25T01:26:14.570Z,142.20
2019-01-25T01:27:14.726Z,140.90
2019-01-25T01:28:14.901Z,139.70
2019-01-25T01:29:15.060Z,128.80
2019-01-25T01:30:15.232Z,134.60
2019-01-25T01:31:15.398Z,137.70
2019-01-25T01:32:15.567Z,137.20
2019-01-25T01:33:15.745Z,136.50
2019-01-25T01:34:15.910Z,136.30
2019-01-25T01:35:16.088Z,129.50
2019-01-25T01:36:16.238Z,144.50
2019-01-25T01:37:16.409Z,127.00
2019-01-25T01:38:16.573Z,130.90
2019-01-25T01:39:16.742Z,141.70
2019-01-25T01:40:21.825Z,133.40
2019-01-25T01:41:17.083Z,135.90
2019-01-25T01:42:17.247Z,138.10
2019-01-25T01:43:17.410Z,140.90
2019-01-25T01:44:17.579Z,147.10
2019-01-25T01:45:17.776Z,132.20
2019-01-25T01:46:17.915Z,137.30
2019-01-25T01:47:18.080Z,145.40
2019-01-25T01:48:18.256Z,136.60
2019-01-25T01:49:18.409Z,139.90
2019-01-25T01:50:18.570Z,137.70
2019-01-25T01:51:18.739Z,137.90
2019-01-25T01:52:18.907Z,135.80
2019-01-25T01:53:19.073Z,140.40
2019-01-25T01:54:19.244Z,131.50
2019-01-25T01:55:19.411Z,139.20
2019-01-25T01:56:19.570Z,137.00
2019-01-25T01:57:19.741Z,141.00
2019-01-25T01:58:19.910Z,133.60
2019-01-25T01:59:20.077Z,138.00
2019-01-25T02:00:20.246Z,133.30
2019-01-25T02:01:20.417Z,142.00
2019-01-25T02:02:20.582Z,139.20
2019-01-25T02:03:20.753Z,133.70
2019-01-25T02:04:20.921Z,135.70
2019-01-25T02:05:21.096Z,133.40
2019-01-25T02:06:21.258Z,138.50
2019-01-25T02:07:21.457Z,141.90
2019-01-25T02:08:21.575Z,139.70
2019-01-25T02:09:21.754Z,134.10
2019-01-25T02:10:28.991Z,139.00
2019-01-25T02:11:22.088Z,133.40
2019-01-25T02:12:22.262Z,131.10
2019-01-25T02:13:22.428Z,138.00
2019-01-25T02:14:22.596Z,141.60
2019-01-25T02:15:22.763Z,138.50
2019-01-25T02:16:22.931Z,134.50
2019-01-25T02:17:23.097Z,133.60
2019-01-25T02:18:23.262Z,134.40
2019-01-25T02:19:23.443Z,134.70
2019-01-25T02:20:23.606Z,135.00
2019-01-25T02:21:23.774Z,129.70
2019-01-25T02:22:23.942Z,132.30
2019-01-25T02:23:24.118Z,142.90
2019-01-25T02:24:24.276Z,133.70
2019-01-25T02:25:24.443Z,137.80
2019-01-25T02:26:24.601Z,136.40
2019-01-25T02:27:24.771Z,136.30
2019-01-25T02:28:24.938Z,135.20
2019-01-25T02:29:25.106Z,133.90
2019-01-25T02:30:25.266Z,135.00
2019-01-25T02:31:25.448Z,137.80
2019-01-25T02:32:25.619Z,135.90
2019-01-25T02:33:25.779Z,123.90
2019-01-25T02:34:25.955Z,137.20
2019-01-25T02:35:26.118Z,137.20
2019-01-25T02:36:26.294Z,128.40
2019-01-25T02:37:26.454Z,143.30
2019-01-25T02:38:26.630Z,128.50
2019-01-25T02:39:26.799Z,138.60
2019-01-25T02:40:26.966Z,140.70
2019-01-25T02:41:27.135Z,130.30
2019-01-25T02:42:27.302Z,133.10
2019-01-25T02:43:27.464Z,131.10
2019-01-25T02:44:27.638Z,129.20
2019-01-25T02:45:27.800Z,132.20
2019-01-25T02:46:27.972Z,132.70
2019-01-25T02:47:28.129Z,129.60
2019-01-25T02:48:28.298Z,129.90
2019-01-25T02:49:28.466Z,131.30
2019-01-25T02:50:28.639Z,127.90
2019-01-25T02:51:28.806Z,132.40
2019-01-25T02:52:28.973Z,134.80
2019-01-25T02:53:29.142Z,133.30
2019-01-25T02:54:29.312Z,130.60
2019-01-25T02:55:29.474Z,129.40
2019-01-25T02:56:29.645Z,135.70
2019-01-25T02:57:29.815Z,130.50
2019-01-25T02:58:29.983Z,123.30
2019-01-25T02:59:30.151Z,140.10
2019-01-25T03:00:30.317Z,137.80
2019-01-25T03:01:30.487Z,136.80
2019-01-25T03:02:30.652Z,133.30
2019-01-25T03:03:30.836Z,135.00
2019-01-25T03:04:30.969Z,125.40
2019-01-25T03:05:31.174Z,131.40
2019-01-25T03:06:31.323Z,125.00
2019-01-25T03:07:31.500Z,134.20
2019-01-25T03:08:31.658Z,127.40
2019-01-25T03:09:31.822Z,131.70
2019-01-25T03:10:31.999Z,126.90
2019-01-25T03:11:32.153Z,133.30
2019-01-25T03:12:32.325Z,133.30
2019-01-25T03:13:32.495Z,127.40
2019-01-25T03:14:32.668Z,117.30
2019-01-25T03:15:32.829Z,113.40
2019-01-25T03:16:33.000Z,124.40
2019-01-25T03:17:33.173Z,118.70
2019-01-25T03:18:33.337Z,124.30
2019-01-25T03:19:33.527Z,119.20
2019-01-25T03:20:33.663Z,129.60
2019-01-25T03:21:33.840Z,122.30
2019-01-25T03:22:34.001Z,120.10
2019-01-25T03:23:34.168Z,111.60
2019-01-25T03:24:34.343Z,116.90
2019-01-25T03:25:34.515Z,108.60
2019-01-25T03:26:34.684Z,121.50
2019-01-25T03:27:34.853Z,117.10
2019-01-25T03:28:35.025Z,113.80
2019-01-25T03:29:35.191Z,95.40
2019-01-25T03:30:35.359Z,75.20
2019-01-25T03:31:37.738Z,75.90
2019-01-25T03:32:35.693Z,77.90
2019-01-25T03:33:35.853Z,75.40
2019-01-25T03:34:36.027Z,73.20
2019-01-25T03:35:36.188Z,77.70
2019-01-25T03:36:36.370Z,82.70
2019-01-25T03:37:36.532Z,76.40
2019-01-25T03:38:36.702Z,75.20
2019-01-25T03:39:36.859Z,74.60
2019-01-25T03:40:37.034Z,79.40
2019-01-25T03:41:37.194Z,76.00
2019-01-25T03:42:37.370Z,79.60
2019-01-25T03:43:37.550Z,94.10
2019-01-25T03:44:37.691Z,102.90
2019-01-25T03:45:37.861Z,105.20
2019-01-25T03:46:38.016Z,104.10
2019-01-25T03:47:38.191Z,107.20
2019-01-25T03:48:38.356Z,105.30
2019-01-25T03:49:38.527Z,95.20
2019-01-25T03:50:38.696Z,89.90
2019-01-25T03:51:38.868Z,84.70
2019-01-25T03:52:39.023Z,89.80
2019-01-25T03:53:39.197Z,86.70
2019-01-25T03:54:39.365Z,89.60
2019-01-25T03:55:39.527Z,85.60
2019-01-25T03:56:39.705Z,85.30
2019-01-25T03:57:39.859Z,84.00
2019-01-25T03:58:40.064Z,85.90
2019-01-25T03:59:40.207Z,75.30
2019-01-25T04:00:40.384Z,83.10
2019-01-25T04:01:40.550Z,85.70
2019-01-25T04:02:40.716Z,81.60
2019-01-25T04:03:40.892Z,79.40
2019-01-25T04:04:41.053Z,73.30
2019-01-25T04:05:41.231Z,77.80
2019-01-25T04:06:41.386Z,70.50
2019-01-25T04:07:41.571Z,63.90
2019-01-25T04:08:41.738Z,61.90
2019-01-25T04:09:41.902Z,65.30
2019-01-25T04:10:42.096Z,58.40
2019-01-25T04:11:42.240Z,64.00
2019-01-25T04:12:42.409Z,58.20
2019-01-25T04:13:42.586Z,57.10
2019-01-25T04:14:42.753Z,61.40
2019-01-25T04:15:42.926Z,56.10
2019-01-25T04:16:43.088Z,59.30
2019-01-25T04:17:43.268Z,55.90
2019-01-25T04:18:43.415Z,56.70
2019-01-25T04:19:43.595Z,55.60
2019-01-25T04:20:44.408Z,59.10
2019-01-25T04:21:43.923Z,56.20
2019-01-25T04:22:44.079Z,57.00
2019-01-25T04:23:44.235Z,57.70
2019-01-25T04:24:44.406Z,58.20
2019-01-25T04:25:44.564Z,51.50
2019-01-25T04:26:44.731Z,59.20
2019-01-25T04:27:44.902Z,57.90
2019-01-25T04:28:45.065Z,55.70
2019-01-25T04:29:45.223Z,53.40
2019-01-25T04:30:45.407Z,51.30
2019-01-25T04:31:45.561Z,53.20
2019-01-25T04:32:45.734Z,56.70
2019-01-25T04:33:45.890Z,52.30
2019-01-25T04:34:46.056Z,54.20
2019-01-25T04:35:46.225Z,54.90
2019-01-25T04:36:46.391Z,58.00
2019-01-25T04:37:46.567Z,54.20
2019-01-25T04:38:46.724Z,57.60
2019-01-25T04:39:46.891Z,58.80
2019-01-25T04:40:47.061Z,55.50
2019-01-25T04:41:47.225Z,59.00
2019-01-25T04:42:47.394Z,54.10
2019-01-25T04:43:47.564Z,56.00
2019-01-25T04:44:47.737Z,55.70
2019-01-25T04:45:47.896Z,58.60
2019-01-25T04:46:48.064Z,55.10
2019-01-25T04:47:48.225Z,60.00
2019-01-25T04:48:48.389Z,52.90
2019-01-25T04:49:48.559Z,54.20
2019-01-25T04:50:48.731Z,50.70
2019-01-25T04:51:48.918Z,49.20
2019-01-25T04:52:49.063Z,54.70
2019-01-25T04:53:49.249Z,57.80
2019-01-25T04:54:49.410Z,53.40
2019-01-25T04:55:49.560Z,53.30
2019-01-25T04:56:49.735Z,56.60
2019-01-25T04:57:49.966Z,54.60
2019-01-25T04:58:50.065Z,51.70
2019-01-25T04:59:50.234Z,49.00
2019-01-25T05:00:50.402Z,53.30
2019-01-25T05:01:52.091Z,50.00
2019-01-25T05:02:50.737Z,52.00
2019-01-25T05:03:50.906Z,51.50
2019-01-25T05:04:51.063Z,55.80
2019-01-25T05:05:51.232Z,52.20
2019-01-25T05:06:51.409Z,54.00
2019-01-25T05:07:51.565Z,50.60
2019-01-25T05:08:51.740Z,52.40
2019-01-25T05:09:51.902Z,55.40
2019-01-25T05:10:52.102Z,55.80
2019-01-25T05:11:52.237Z,55.80
2019-01-25T05:12:53.109Z,56.40
2019-01-25T05:13:52.577Z,52.10
2019-01-25T05:14:52.747Z,57.90
2019-01-25T05:15:52.913Z,52.70
2019-01-25T05:16:53.099Z,56.00
2019-01-25T05:17:53.243Z,54.50
2019-01-25T05:18:53.411Z,57.60
2019-01-25T05:19:53.589Z,57.20
2019-01-25T05:20:53.759Z,54.90
2019-01-25T05:21:53.920Z,56.80
2019-01-25T05:22:54.075Z,54.30
2019-01-25T05:23:54.248Z,55.30
2019-01-25T05:24:54.419Z,53.70
2019-01-25T05:25:54.586Z,59.50
2019-01-25T05:26:54.756Z,56.10
2019-01-25T05:27:54.929Z,55.10
2019-01-25T05:28:55.099Z,51.80
2019-01-25T05:29:55.270Z,53.00
2019-01-25T05:30:55.446Z,53.80
2019-01-25T05:31:55.610Z,55.60
2019-01-25T05:32:55.774Z,62.80
2019-01-25T05:33:55.934Z,62.70
2019-01-25T05:34:56.115Z,55.70
2019-01-25T05:35:56.272Z,56.10
2019-01-25T05:36:56.440Z,57.20
2019-01-25T05:37:56.619Z,54.50
2019-01-25T05:38:56.780Z,55.40
2019-01-25T05:39:56.944Z,54.50
2019-01-25T05:40:57.116Z,58.60
2019-01-25T05:41:57.288Z,57.20
2019-01-25T05:42:57.475Z,54.30
2019-01-25T05:43:57.623Z,52.10
2019-01-25T05:44:57.790Z,58.20
2019-01-25T05:45:57.961Z,52.10
2019-01-25T05:46:58.129Z,53.60
2019-01-25T05:47:58.297Z,60.20
2019-01-25T05:48:58.465Z,56.80
2019-01-25T05:49:58.636Z,55.70
2019-01-25T05:50:58.800Z,58.00
2019-01-25T05:51:58.967Z,57.10
2019-01-25T05:52:59.145Z,55.90
2019-01-25T05:53:59.307Z,58.30
2019-01-25T05:54:59.475Z,62.90
2019-01-25T05:55:59.672Z,56.00
2019-01-25T05:56:59.814Z,59.00
2019-01-25T05:57:59.979Z,60.90
2019-01-25T05:59:00.163Z,62.30
2019-01-25T06:00:00.322Z,57.80
2019-01-25T06:01:00.475Z,61.20
2019-01-25T06:02:00.651Z,59.50
2019-01-25T06:03:00.822Z,58.10
2019-01-25T06:04:00.991Z,59.90
2019-01-25T06:05:01.163Z,63.80
2019-01-25T06:06:01.330Z,57.30
2019-01-25T06:07:01.495Z,59.40
2019-01-25T06:08:01.666Z,60.80
2019-01-25T06:09:01.839Z,59.20
2019-01-25T06:10:02.013Z,57.40
2019-01-25T06:11:02.173Z,57.40
2019-01-25T06:12:02.345Z,59.60
2019-01-25T06:13:02.510Z,55.60
2019-01-25T06:14:02.685Z,59.30
2019-01-25T06:15:02.855Z,58.10
2019-01-25T06:16:03.056Z,56.00
2019-01-25T06:17:03.241Z,60.70
2019-01-25T06:18:03.363Z,57.50
2019-01-25T06:19:03.534Z,59.10
2019-01-25T06:20:03.698Z,62.30
2019-01-25T06:21:03.847Z,63.30
2019-01-25T06:22:04.015Z,65.10
2019-01-25T06:23:04.187Z,65.10
2019-01-25T06:24:04.350Z,72.10
2019-01-25T06:25:04.526Z,65.00
2019-01-25T06:26:04.685Z,66.30
2019-01-25T06:27:04.857Z,63.10
2019-01-25T06:28:05.044Z,66.00
2019-01-25T06:29:05.219Z,61.20
2019-01-25T06:30:05.378Z,63.10
2019-01-25T06:31:05.543Z,56.90
2019-01-25T06:32:05.708Z,56.30
2019-01-25T06:33:05.870Z,58.40
2019-01-25T06:34:06.035Z,58.10
2019-01-25T06:35:06.214Z,56.10
2019-01-25T06:36:06.374Z,57.60
2019-01-25T06:37:06.543Z,54.50
2019-01-25T06:38:06.713Z,57.50
2019-01-25T06:39:06.915Z,55.00
2019-01-25T06:40:07.153Z,56.10
2019-01-25T06:41:07.238Z,56.50
2019-01-25T06:42:07.376Z,56.90
2019-01-25T06:43:07.544Z,65.20
2019-01-25T06:44:07.756Z,55.40
2019-01-25T06:45:07.875Z,61.90
2019-01-25T06:46:08.043Z,58.40
2019-01-25T06:47:08.212Z,60.20
2019-01-25T06:48:08.384Z,60.40
2019-01-25T06:49:08.560Z,58.30
2019-01-25T06:50:08.713Z,57.00
2019-01-25T06:51:08.880Z,57.00
2019-01-25T06:52:09.050Z,63.40
2019-01-25T06:53:09.246Z,62.10
2019-01-25T06:54:09.379Z,66.80
2019-01-25T06:55:09.562Z,60.50
2019-01-25T06:56:09.719Z,60.70
2019-01-25T06:57:09.898Z,56.90
2019-01-25T06:58:10.085Z,57.90
2019-01-25T06:59:10.266Z,57.00
2019-01-25T07:00:10.428Z,58.40
2019-01-25T07:01:10.601Z,57.10
2019-01-25T07:02:10.764Z,62.20
2019-01-25T07:03:10.943Z,66.10
2019-01-25T07:04:11.104Z,58.00
2019-01-25T07:05:11.280Z,56.80
2019-01-25T07:06:11.487Z,57.70
2019-01-25T07:07:11.630Z,61.60
2019-01-25T07:08:11.798Z,59.50
2019-01-25T07:09:11.959Z,61.70
2019-01-25T07:10:12.131Z,59.40
2019-01-25T07:11:12.302Z,162.20
2019-01-25T07:12:12.469Z,175.00
2019-01-25T07:13:12.634Z,84.10
2019-01-25T07:14:12.798Z,71.00
2019-01-25T07:15:12.968Z,64.40
2019-01-25T07:16:13.133Z,61.50
2019-01-25T07:17:13.303Z,61.30
2019-01-25T07:18:13.471Z,63.20
2019-01-25T07:19:13.628Z,63.40
2019-01-25T07:20:13.812Z,59.40
2019-01-25T07:21:13.980Z,60.20
2019-01-25T07:22:14.156Z,60.60
2019-01-25T07:23:14.314Z,60.90
2019-01-25T07:24:14.497Z,57.30
2019-01-25T07:25:14.662Z,59.90
2019-01-25T07:26:14.819Z,60.50
2019-01-25T07:27:14.985Z,58.40
2019-01-25T07:28:15.155Z,60.90
2019-01-25T07:29:15.325Z,63.50
2019-01-25T07:30:15.553Z,61.40
2019-01-25T07:31:15.684Z,61.80
2019-01-25T07:32:15.898Z,59.00
2019-01-25T07:33:16.021Z,55.50
2019-01-25T07:34:16.226Z,53.00
2019-01-25T07:35:16.342Z,60.40
2019-01-25T07:36:16.530Z,51.50
2019-01-25T07:37:16.681Z,52.60
2019-01-25T07:38:16.845Z,55.70
2019-01-25T07:39:17.016Z,54.50
2019-01-25T07:40:17.177Z,54.10
2019-01-25T07:41:17.372Z,55.70
2019-01-25T07:42:17.523Z,59.90
2019-01-25T07:43:17.684Z,58.60
2019-01-25T07:44:17.853Z,56.30
2019-01-25T07:45:18.049Z,63.40
2019-01-25T07:46:18.185Z,59.60
2019-01-25T07:47:18.364Z,58.80
2019-01-25T07:48:18.585Z,55.40
2019-01-25T07:49:18.674Z,57.80
2019-01-25T07:50:18.834Z,58.70
2019-01-25T07:51:19.024Z,58.80
2019-01-25T07:52:19.187Z,56.20
2019-01-25T07:53:19.353Z,52.80
2019-01-25T07:54:19.539Z,161.00
2019-01-25T07:55:19.961Z,144.20
2019-01-25T07:56:19.882Z,74.90
2019-01-25T07:57:20.055Z,59.70
2019-01-25T07:58:20.244Z,60.60
2019-01-25T07:59:20.375Z,53.40
2019-01-25T08:00:20.582Z,53.90
2019-01-25T08:01:20.714Z,51.70
2019-01-25T08:02:20.957Z,52.10
2019-01-25T08:03:21.074Z,52.00
2019-01-25T08:04:21.236Z,57.20
2019-01-25T08:05:21.387Z,53.80
2019-01-25T08:06:21.557Z,52.80
2019-01-25T08:07:21.798Z,57.80
2019-01-25T08:08:21.907Z,53.40
2019-01-25T08:09:22.072Z,55.90
2019-01-25T08:10:22.196Z,57.70
2019-01-25T08:11:22.393Z,55.10
2019-01-25T08:12:22.524Z,57.50
2019-01-25T08:13:22.706Z,57.90
2019-01-25T08:14:22.869Z,57.10
2019-01-25T08:15:23.087Z,51.90
2019-01-25T08:16:23.196Z,52.90
2019-01-25T08:17:23.386Z,50.60
2019-01-25T08:18:23.564Z,49.60
2019-01-25T08:19:23.697Z,53.80
2019-01-25T08:20:23.914Z,54.40
2019-01-25T08:21:24.034Z,48.60
2019-01-25T08:22:24.228Z,52.30
2019-01-25T08:23:24.449Z,49.00
2019-01-25T08:24:24.531Z,53.30
2019-01-25T08:25:24.689Z,53.50
2019-01-25T08:26:24.857Z,48.60
2019-01-25T08:27:25.012Z,50.80
2019-01-25T08:28:25.191Z,52.80
2019-01-25T08:29:28.187Z,50.90
2019-01-25T08:30:25.506Z,52.90
2019-01-25T08:31:25.678Z,50.10
2019-01-25T08:32:25.835Z,50.10
2019-01-25T08:33:26.014Z,48.90
2019-01-25T08:34:26.185Z,49.00
2019-01-25T08:35:26.339Z,51.30
2019-01-25T08:36:26.522Z,52.70
2019-01-25T08:37:26.669Z,50.40
2019-01-25T08:38:26.831Z,53.30
2019-01-25T08:39:27.006Z,51.10
2019-01-25T08:40:27.175Z,56.80
2019-01-25T08:41:27.333Z,50.50
2019-01-25T08:42:27.521Z,54.80
2019-01-25T08:43:27.641Z,52.90
2019-01-25T08:44:27.817Z,51.40
2019-01-25T08:45:27.967Z,51.20
2019-01-25T08:46:28.146Z,52.60
2019-01-25T08:47:28.321Z,55.30
2019-01-25T08:48:29.244Z,50.70
2019-01-25T08:49:28.626Z,55.60
2019-01-25T08:50:28.782Z,55.60
2019-01-25T08:51:28.998Z,56.00
2019-01-25T08:52:29.117Z,55.60
2019-01-25T08:53:29.300Z,55.40
2019-01-25T08:54:29.458Z,54.40
2019-01-25T08:55:29.607Z,51.40
2019-01-25T08:56:29.769Z,54.90
2019-01-25T08:57:30.010Z,56.80
2019-01-25T08:58:30.145Z,58.50
2019-01-25T08:59:30.286Z,53.90
2019-01-25T09:00:30.452Z,52.00
2019-01-25T09:01:30.616Z,54.60
2019-01-25T09:02:30.786Z,54.70
2019-01-25T09:03:30.961Z,56.40
2019-01-25T09:04:31.126Z,54.70
2019-01-25T09:05:31.287Z,51.70
2019-01-25T09:06:31.453Z,55.40
2019-01-25T09:07:31.616Z,55.70
2019-01-25T09:08:31.785Z,54.10
2019-01-25T09:09:31.962Z,51.90
2019-01-25T09:10:32.124Z,58.00
2019-01-25T09:11:32.288Z,59.50
2019-01-25T09:12:32.440Z,52.40
2019-01-25T09:13:32.627Z,55.60
2019-01-25T09:14:32.782Z,53.40
2019-01-25T09:15:32.952Z,55.80
2019-01-25T09:16:33.127Z,54.10
2019-01-25T09:17:33.299Z,59.90
2019-01-25T09:18:33.484Z,54.90
2019-01-25T09:19:33.617Z,57.50
2019-01-25T09:20:33.810Z,58.80
2019-01-25T09:21:33.947Z,52.20
2019-01-25T09:22:34.159Z,54.60
2019-01-25T09:23:34.301Z,53.90
2019-01-25T09:24:34.461Z,56.30
2019-01-25T09:25:34.636Z,56.40
2019-01-25T09:26:34.801Z,57.10
2019-01-25T09:27:35.005Z,52.50
2019-01-25T09:28:35.150Z,54.20
2019-01-25T09:29:35.321Z,52.30
2019-01-25T09:30:35.484Z,55.40
2019-01-25T09:31:35.666Z,56.10
2019-01-25T09:32:35.829Z,56.20
2019-01-25T09:33:36.015Z,60.00
2019-01-25T09:34:36.149Z,53.00
2019-01-25T09:35:36.320Z,59.10
2019-01-25T09:36:36.486Z,57.70
2019-01-25T09:37:36.653Z,55.70
2019-01-25T09:38:36.807Z,50.70
2019-01-25T09:39:36.992Z,55.40
2019-01-25T09:40:37.174Z,51.00
2019-01-25T09:41:37.348Z,52.90
2019-01-25T09:42:37.521Z,57.50
2019-01-25T09:43:37.668Z,52.70
2019-01-25T09:44:37.826Z,54.00
2019-01-25T09:45:38.000Z,52.00
2019-01-25T09:46:38.161Z,49.70
2019-01-25T09:47:38.326Z,54.40
2019-01-25T09:48:38.510Z,50.60
2019-01-25T09:49:38.661Z,53.80
2019-01-25T09:50:38.816Z,54.80
2019-01-25T09:51:38.988Z,49.40
2019-01-25T09:52:39.157Z,49.50
2019-01-25T09:53:39.335Z,52.30
2019-01-25T09:54:39.488Z,49.40
2019-01-25T09:55:39.656Z,50.20
2019-01-25T09:56:39.818Z,50.90
2019-01-25T09:57:39.987Z,52.50
2019-01-25T09:58:40.200Z,54.30
2019-01-25T09:59:40.325Z,52.00
2019-01-25T10:00:40.503Z,52.70
2019-01-25T10:01:40.665Z,54.30
2019-01-25T10:02:40.835Z,100.90
2019-01-25T10:03:41.007Z,56.90
2019-01-25T10:04:41.181Z,55.60
2019-01-25T10:05:41.364Z,52.40
2019-01-25T10:06:41.504Z,52.20
2019-01-25T10:07:41.658Z,53.20
2019-01-25T10:08:41.830Z,51.90
2019-01-25T10:09:42.002Z,51.40
2019-01-25T10:10:42.161Z,54.00
2019-01-25T10:11:42.341Z,53.70
2019-01-25T10:12:43.473Z,56.10
2019-01-25T10:13:42.652Z,52.60
2019-01-25T10:14:42.807Z,54.00
2019-01-25T10:15:42.988Z,55.00
2019-01-25T10:16:43.301Z,54.00
2019-01-25T10:17:43.315Z,55.70
2019-01-25T10:18:43.499Z,53.30
2019-01-25T10:19:43.656Z,57.40
2019-01-25T10:20:43.827Z,54.30
2019-01-25T10:21:44.002Z,53.20
2019-01-25T10:22:44.159Z,53.60
2019-01-25T10:23:44.319Z,51.80
2019-01-25T10:24:44.496Z,53.30
2019-01-25T10:25:44.650Z,51.60
2019-01-25T10:26:44.815Z,56.00
2019-01-25T10:27:44.986Z,61.50
2019-01-25T10:28:45.170Z,52.00
2019-01-25T10:29:45.319Z,57.50
2019-01-25T10:30:45.469Z,50.90
2019-01-25T10:31:45.638Z,52.70
2019-01-25T10:32:45.807Z,57.80
2019-01-25T10:33:45.972Z,63.00
2019-01-25T10:34:46.137Z,55.40
2019-01-25T10:35:46.309Z,54.20
2019-01-25T10:36:46.472Z,53.80
2019-01-25T10:37:46.643Z,54.20
2019-01-25T10:38:46.807Z,51.10
2019-01-25T10:39:46.982Z,54.80
2019-01-25T10:40:47.167Z,52.00
2019-01-25T10:41:47.294Z,49.50
2019-01-25T10:42:52.970Z,54.20
2019-01-25T10:43:47.620Z,50.70
2019-01-25T10:44:47.775Z,53.10
2019-01-25T10:45:47.941Z,56.30
2019-01-25T10:46:48.115Z,53.20
2019-01-25T10:47:48.268Z,57.20
2019-01-25T10:48:48.429Z,51.70
2019-01-25T10:49:48.596Z,53.80
2019-01-25T10:50:48.764Z,57.50
2019-01-25T10:51:48.912Z,55.50
2019-01-25T10:52:49.105Z,55.60
2019-01-25T10:53:49.258Z,48.50
2019-01-25T10:54:49.424Z,55.30
2019-01-25T10:55:49.583Z,52.40
2019-01-25T10:56:49.758Z,59.50
2019-01-25T10:57:49.925Z,55.90
2019-01-25T10:58:50.088Z,52.60
2019-01-25T10:59:50.270Z,52.80
2019-01-25T11:00:51.371Z,52.10
2019-01-25T11:01:50.582Z,51.20
2019-01-25T11:02:57.629Z,49.50
2019-01-25T11:03:50.918Z,51.70
2019-01-25T11:04:51.100Z,56.40
2019-01-25T11:05:51.260Z,49.30
2019-01-25T11:06:51.429Z,47.30
2019-01-25T11:07:51.607Z,50.90
2019-01-25T11:08:52.948Z,50.40
2019-01-25T11:09:51.932Z,51.30
2019-01-25T11:10:52.113Z,50.60
2019-01-25T11:11:52.260Z,51.70
2019-01-25T11:12:52.434Z,51.50
2019-01-25T11:13:52.595Z,50.90
2019-01-25T11:14:52.759Z,46.80
2019-01-25T11:15:52.924Z,46.90
2019-01-25T11:16:53.094Z,51.10
2019-01-25T11:17:53.252Z,45.50
2019-01-25T11:18:53.420Z,50.70
2019-01-25T11:19:53.587Z,45.10
2019-01-25T11:20:53.734Z,46.50
2019-01-25T11:21:53.906Z,46.10
2019-01-25T11:22:54.056Z,46.60
2019-01-25T11:23:54.250Z,47.00
2019-01-25T11:24:54.391Z,47.70
2019-01-25T11:25:55.368Z,46.10
2019-01-25T11:26:54.720Z,45.50
2019-01-25T11:28:55.102Z,47.20
2019-01-25T11:29:55.197Z,41.90
2019-01-25T11:30:55.387Z,35.30
2019-01-25T11:31:55.585Z,41.90
2019-01-25T11:32:55.748Z,40.60
2019-01-25T11:33:55.910Z,35.50
2019-01-25T11:34:56.067Z,37.30
2019-01-25T11:35:56.257Z,34.40
2019-01-25T11:36:56.412Z,32.10
2019-01-25T11:37:56.582Z,31.30
2019-01-25T11:38:56.749Z,23.10
2019-01-25T11:39:56.902Z,32.80
2019-01-25T11:41:57.239Z,31.10
2019-01-25T11:42:57.408Z,29.30
2019-01-25T11:43:57.559Z,30.50
2019-01-25T11:44:57.722Z,30.80
2019-01-25T11:45:57.893Z,29.40
2019-01-25T11:46:58.053Z,29.20
2019-01-25T11:47:58.773Z,31.80
2019-01-25T11:48:58.396Z,35.60
2019-01-25T11:49:58.559Z,30.40
2019-01-25T11:50:58.726Z,35.60
2019-01-25T11:51:58.892Z,31.90
2019-01-25T11:52:59.061Z,39.80
2019-01-25T11:53:59.231Z,31.20
2019-01-25T11:54:59.392Z,30.60
2019-01-25T11:55:59.549Z,31.00
2019-01-25T11:56:59.719Z,28.90
2019-01-25T11:57:59.889Z,27.70
2019-01-25T11:59:00.055Z,26.30
2019-01-25T12:00:00.286Z,28.80
2019-01-25T12:01:00.385Z,29.70
2019-01-25T12:02:00.551Z,29.40
2019-01-25T12:03:00.720Z,30.40
2019-01-25T12:04:00.887Z,45.20
2019-01-25T12:05:01.048Z,31.10
2019-01-25T12:06:01.226Z,30.90
2019-01-25T12:07:01.388Z,30.10
2019-01-25T12:08:01.539Z,38.80
2019-01-25T12:09:01.714Z,36.40
2019-01-25T12:10:01.949Z,30.30
2019-01-25T12:11:02.056Z,29.80
2019-01-25T12:12:02.265Z,29.50
2019-01-25T12:13:02.390Z,29.90
2019-01-25T12:14:02.560Z,26.80
2019-01-25T12:15:02.713Z,28.70
2019-01-25T12:16:02.880Z,31.30
2019-01-25T12:17:03.051Z,29.50
2019-01-25T12:18:03.230Z,28.30
2019-01-25T12:19:03.384Z,26.60
2019-01-25T12:20:03.554Z,26.40
2019-01-25T12:21:03.730Z,28.00
2019-01-25T12:22:03.885Z,29.80
2019-01-25T12:23:04.060Z,26.60
2019-01-25T12:24:04.212Z,29.60
2019-01-25T12:25:04.376Z,31.90
2019-01-25T12:26:04.555Z,26.30
2019-01-25T12:27:04.742Z,28.30
2019-01-25T12:28:05.464Z,30.90
2019-01-25T12:29:05.060Z,27.20
2019-01-25T12:30:05.234Z,27.40
2019-01-25T12:31:05.391Z,28.00
2019-01-25T12:32:05.570Z,28.50
2019-01-25T12:33:05.726Z,26.10
2019-01-25T12:34:05.923Z,26.50
2019-01-25T12:35:07.495Z,27.20
2019-01-25T12:36:06.231Z,26.50
2019-01-25T12:37:06.385Z,27.50
2019-01-25T12:38:06.562Z,26.00
2019-01-25T12:39:06.734Z,25.40
2019-01-25T12:40:06.901Z,26.00
2019-01-25T12:41:07.068Z,26.00
2019-01-25T12:42:07.255Z,25.40
2019-01-25T12:43:07.398Z,27.00
2019-01-25T12:44:07.567Z,23.00
2019-01-25T12:45:07.746Z,24.30
2019-01-25T12:46:07.952Z,24.10
2019-01-25T12:47:08.076Z,20.70
2019-01-25T12:48:08.250Z,23.40
2019-01-25T12:49:08.410Z,22.40
2019-01-25T12:50:08.582Z,22.30